Time;durP1;ratioP1;P1;durP2;ratioP2;P2;SDS_P1;SDS_P2;PMS_P1;PMS_P2;Temp;Humidity;BMP_temperature;BMP_pressure;BME280_temperature;BME280_humidity;BME280_pressure;Samples;Min_cycle;Max_cycle;Signal;HPM_P1;HPM_P2
2022/02/13 00:00:42;;;;;;;6.70;5.70;;;4.00;32.60;;;;;;10523330;28;20549;-67
2022/02/13 00:05:45;;;;;;;7.17;6.13;;;4.00;32.80;;;;;;10526267;28;20226;-68
2022/02/13 00:10:48;;;;;;;9.60;7.57;;;3.90;32.80;;;;;;10524275;28;20236;-68
2022/02/13 00:15:53;;;;;;;8.57;5.80;;;3.90;32.70;;;;;;10525643;28;20314;-68
2022/02/13 00:20:56;;;;;;;8.63;6.30;;;3.90;32.90;;;;;;10522821;28;20227;-68
2022/02/13 00:25:59;;;;;;;8.20;5.63;;;3.90;32.80;;;;;;10523806;28;20220;-68
2022/02/13 00:31:04;;;;;;;9.43;7.47;;;4.00;32.90;;;;;;10520507;28;20227;-68
2022/02/13 00:36:07;;;;;;;7.03;6.33;;;3.80;32.80;;;;;;10519962;28;20247;-69
2022/02/13 00:41:11;;;;;;;7.23;6.50;;;3.80;32.60;;;;;;10522363;28;20604;-70
2022/02/13 00:46:15;;;;;;;6.77;5.83;;;3.70;32.70;;;;;;10525527;28;20605;-70
2022/02/13 00:51:18;;;;;;;7.83;6.97;;;3.60;32.90;;;;;;10519062;28;20220;-70
2022/02/13 00:56:21;;;;;;;8.20;7.03;;;3.60;32.90;;;;;;10521639;28;20742;-70
2022/02/13 01:01:26;;;;;;;10.07;6.87;;;3.60;33.00;;;;;;10522062;28;20227;-70
2022/02/13 01:06:29;;;;;;;7.43;6.73;;;3.70;33.10;;;;;;10519622;28;20233;-70
2022/02/13 01:11:33;;;;;;;7.97;6.87;;;3.50;32.90;;;;;;10523099;28;20254;-70
2022/02/13 01:16:37;;;;;;;9.23;6.73;;;3.50;33.00;;;;;;10521765;28;20223;-70
2022/02/13 01:21:40;;;;;;;8.93;6.90;;;3.40;32.90;;;;;;10521452;28;20581;-70
2022/02/13 01:26:44;;;;;;;7.27;6.43;;;3.50;33.00;;;;;;10522920;28;20227;-70
2022/02/13 01:31:49;;;;;;;8.37;6.97;;;3.30;33.00;;;;;;10522288;28;20310;-70
2022/02/13 01:36:52;;;;;;;8.20;6.60;;;3.30;33.10;;;;;;10520553;28;20227;-73
2022/02/13 01:41:55;;;;;;;7.73;6.93;;;3.30;33.00;;;;;;10519240;28;20226;-72
2022/02/13 01:47:01;;;;;;;7.33;6.47;;;3.20;33.00;;;;;;10521786;28;20228;-72
2022/02/13 01:52:05;;;;;;;8.63;6.27;;;3.10;33.30;;;;;;10520019;28;20223;-72
2022/02/13 01:57:10;;;;;;;7.80;6.53;;;3.10;33.40;;;;;;10519626;28;20224;-72
2022/02/13 02:02:15;;;;;;;8.43;5.93;;;3.10;33.40;;;;;;10519963;28;20292;-72
2022/02/13 02:07:19;;;;;;;6.47;5.53;;;3.10;33.50;;;;;;10519343;28;20238;-72
2022/02/13 02:12:22;;;;;;;6.13;5.53;;;3.20;33.50;;;;;;10518172;28;20238;-72
2022/02/13 02:17:27;;;;;;;9.03;6.30;;;3.10;33.30;;;;;;10522137;28;20228;-72
2022/02/13 02:22:30;;;;;;;7.13;6.10;;;3.00;33.30;;;;;;10517753;28;20216;-72
2022/02/13 02:27:34;;;;;;;8.40;6.30;;;3.10;33.40;;;;;;10521665;28;20309;-72
2022/02/13 02:32:37;;;;;;;6.37;5.73;;;3.00;33.40;;;;;;10521737;28;20330;-72
2022/02/13 02:37:41;;;;;;;6.13;5.60;;;3.00;33.40;;;;;;10519899;28;20238;-72
2022/02/13 02:42:47;;;;;;;6.97;6.03;;;3.00;33.30;;;;;;10519899;28;20227;-72
2022/02/13 02:47:50;;;;;;;7.03;5.23;;;3.00;33.30;;;;;;10518355;28;20297;-72
2022/02/13 02:52:53;;;;;;;7.67;5.30;;;3.00;33.30;;;;;;10516560;28;20562;-72
2022/02/13 02:57:58;;;;;;;6.63;5.47;;;3.00;33.30;;;;;;10522702;28;20235;-72
2022/02/13 03:03:01;;;;;;;6.37;5.50;;;2.90;33.30;;;;;;10528514;28;20234;-72
2022/02/13 03:08:04;;;;;;;6.00;5.40;;;2.90;33.30;;;;;;10527985;28;20679;-72
2022/02/13 03:13:10;;;;;;;7.47;5.40;;;2.80;33.30;;;;;;10528632;28;20231;-72
2022/02/13 03:18:17;;;;;;;5.70;5.10;;;2.90;33.60;;;;;;10524368;28;20231;-72
2022/02/13 03:23:20;;;;;;;5.30;4.80;;;2.80;33.50;;;;;;10527264;28;20220;-72
2022/02/13 03:28:25;;;;;;;6.17;4.97;;;2.90;33.50;;;;;;10526535;28;20231;-72
2022/02/13 03:33:28;;;;;;;5.97;4.83;;;2.70;33.60;;;;;;10527709;28;20242;-72
2022/02/13 03:38:31;;;;;;;6.70;5.20;;;2.70;33.40;;;;;;10527161;28;20241;-72
2022/02/13 03:43:36;;;;;;;5.73;5.07;;;2.70;33.50;;;;;;10526764;28;20230;-72
2022/02/13 03:48:39;;;;;;;6.67;3.90;;;2.70;33.70;;;;;;10523878;28;20598;-72
2022/02/13 03:53:44;;;;;;;5.03;4.33;;;2.80;33.60;;;;;;10527495;28;20220;-72
2022/02/13 03:58:49;;;;;;;5.00;4.50;;;2.70;33.70;;;;;;10520579;28;20228;-72
2022/02/13 04:03:52;;;;;;;5.63;4.50;;;2.70;33.90;;;;;;10523184;28;20581;-72
2022/02/13 04:08:55;;;;;;;5.73;4.57;;;2.70;33.70;;;;;;10525900;28;20227;-72
2022/02/13 04:13:59;;;;;;;6.27;4.40;;;2.60;33.60;;;;;;10524483;28;20224;-72
2022/02/13 04:19:03;;;;;;;5.03;4.47;;;2.60;33.80;;;;;;10523025;28;20238;-68
2022/02/13 04:24:06;;;;;;;6.40;5.20;;;2.70;33.60;;;;;;10524313;28;20230;-68
2022/02/13 04:29:11;;;;;;;7.40;4.77;;;2.60;33.50;;;;;;10524917;28;20223;-68
2022/02/13 04:34:14;;;;;;;5.07;4.27;;;2.40;33.40;;;;;;10523809;28;20296;-67
2022/02/13 04:39:17;;;;;;;7.00;4.63;;;2.30;33.50;;;;;;10521121;28;20230;-68
2022/02/13 04:44:22;;;;;;;6.33;4.77;;;2.20;33.80;;;;;;10524230;28;20219;-68
2022/02/13 04:49:25;;;;;;;7.17;4.73;;;2.20;34.50;;;;;;10520637;28;20239;-68
2022/02/13 04:54:28;;;;;;;6.47;4.90;;;2.20;34.50;;;;;;10524852;28;20215;-68
2022/02/13 04:59:33;;;;;;;5.70;4.63;;;2.20;34.50;;;;;;10524138;28;20247;-68
2022/02/13 05:04:36;;;;;;;5.43;4.20;;;2.20;34.50;;;;;;10516237;28;20224;-68
2022/02/13 05:09:39;;;;;;;5.33;4.53;;;2.20;34.50;;;;;;10522078;28;20228;-68
2022/02/13 05:14:44;;;;;;;5.23;4.40;;;2.20;34.40;;;;;;10523910;28;20219;-67
2022/02/13 05:19:47;;;;;;;5.17;4.67;;;2.30;34.60;;;;;;10522652;28;20231;-68
2022/02/13 05:24:51;;;;;;;5.03;4.53;;;2.30;34.20;;;;;;10521104;28;20215;-68
2022/02/13 05:29:56;;;;;;;4.50;3.80;;;2.30;34.10;;;;;;10523120;28;20227;-68
2022/02/13 05:34:59;;;;;;;5.53;4.60;;;2.20;34.20;;;;;;10522075;28;20216;-68
2022/02/13 05:40:02;;;;;;;4.57;4.10;;;2.20;34.10;;;;;;10521087;28;20591;-68
2022/02/13 05:45:08;;;;;;;5.40;4.83;;;2.20;34.10;;;;;;10522064;28;20223;-68
2022/02/13 05:50:11;;;;;;;4.33;3.93;;;2.20;34.50;;;;;;10518764;28;20595;-68
2022/02/13 05:55:14;;;;;;;5.73;5.13;;;2.20;34.00;;;;;;10521475;28;20711;-68
2022/02/13 06:00:19;;;;;;;5.67;4.80;;;2.20;34.10;;;;;;10520648;28;20234;-68
2022/02/13 06:05:22;;;;;;;6.60;5.50;;;2.20;34.30;;;;;;10518210;28;20629;-67
2022/02/13 06:10:26;;;;;;;7.33;6.40;;;2.10;33.90;;;;;;10518207;28;20239;-68
2022/02/13 06:15:30;;;;;;;6.63;5.67;;;2.10;33.80;;;;;;10520114;28;20235;-68
2022/02/13 06:20:33;;;;;;;6.47;5.57;;;2.00;34.00;;;;;;10519379;28;20231;-68
2022/02/13 06:25:37;;;;;;;7.30;6.03;;;2.00;34.30;;;;;;10519660;28;20238;-68
2022/02/13 06:30:43;;;;;;;6.10;5.50;;;2.00;34.30;;;;;;10522634;28;20227;-68
2022/02/13 06:35:46;;;;;;;6.63;6.00;;;2.00;34.30;;;;;;10524182;28;20719;-70
2022/02/13 06:40:49;;;;;;;10.07;7.40;;;2.00;34.30;;;;;;10525141;28;20235;-70
2022/02/13 06:45:53;;;;;;;13.47;8.70;;;2.10;34.20;;;;;;10528107;28;20223;-70
2022/02/13 06:50:57;;;;;;;9.70;7.87;;;2.00;34.30;;;;;;10525156;28;20337;-69
2022/02/13 06:56:00;;;;;;;8.60;7.73;;;2.00;34.20;;;;;;10528213;28;20219;-69
2022/02/13 07:01:04;;;;;;;8.03;7.23;;;2.10;34.40;;;;;;10524456;28;20219;-69
2022/02/13 07:06:08;;;;;;;8.10;6.77;;;1.90;34.30;;;;;;10522356;28;20718;-70
2022/02/13 07:11:11;;;;;;;6.03;5.37;;;1.90;34.30;;;;;;10523791;28;20238;-70
2022/02/13 07:16:15;;;;;;;7.43;6.00;;;2.00;34.30;;;;;;10525313;28;20231;-70
2022/02/13 07:21:19;;;;;;;5.97;5.47;;;2.00;34.30;;;;;;10522383;28;20601;-70
2022/02/13 07:26:24;;;;;;;6.07;5.43;;;2.00;34.30;;;;;;10525448;28;20250;-70
2022/02/13 07:31:29;;;;;;;6.60;6.00;;;2.00;34.40;;;;;;10526091;28;20230;-70
2022/02/13 07:36:33;;;;;;;7.20;6.30;;;2.10;34.60;;;;;;10524059;28;20242;-70
2022/02/13 07:41:39;;;;;;;6.80;5.87;;;2.10;34.70;;;;;;10523779;28;20223;-70
2022/02/13 07:46:43;;;;;;;6.73;6.07;;;2.20;34.80;;;;;;10525923;28;20741;-70
2022/02/13 07:51:48;;;;;;;6.50;5.23;;;2.20;35.00;;;;;;10520891;28;20223;-70
2022/02/13 07:56:51;;;;;;;7.10;6.23;;;2.30;35.30;;;;;;10522016;28;20230;-70
2022/02/13 08:01:56;;;;;;;6.37;5.10;;;2.40;35.60;;;;;;10522089;28;20256;-70
2022/02/13 08:06:59;;;;;;;5.33;4.80;;;2.50;36.20;;;;;;10525674;28;20223;-70
2022/02/13 08:12:03;;;;;;;5.00;4.50;;;2.70;36.10;;;;;;10522734;28;20227;-69
2022/02/13 08:17:09;;;;;;;4.63;4.23;;;2.90;36.50;;;;;;10522135;28;20270;-70
2022/02/13 08:22:12;;;;;;;4.10;3.70;;;3.10;36.90;;;;;;10522018;28;20226;-70
2022/02/13 08:27:16;;;;;;;5.20;4.20;;;3.40;36.60;;;;;;10522544;28;20238;-70
2022/02/13 08:32:23;;;;;;;4.63;3.97;;;3.60;36.40;;;;;;10521665;28;20802;-70
2022/02/13 08:37:26;;;;;;;5.20;4.67;;;3.90;36.50;;;;;;10524220;28;20219;-70
2022/02/13 08:42:29;;;;;;;6.10;4.13;;;4.30;36.20;;;;;;10519371;28;20223;-71
2022/02/13 08:47:33;;;;;;;5.23;4.13;;;4.50;36.40;;;;;;10523855;28;20234;-72
2022/02/13 08:52:37;;;;;;;4.50;4.10;;;4.70;36.60;;;;;;10519477;28;20239;-72
2022/02/13 08:57:40;;;;;;;3.13;2.80;;;5.00;36.30;;;;;;10524290;28;20235;-71
2022/02/13 09:02:44;;;;;;;3.20;2.87;;;5.30;35.90;;;;;;10521600;28;20230;-70
2022/02/13 09:07:48;;;;;;;2.83;2.40;;;5.60;35.60;;;;;;10523502;28;20223;-70
2022/02/13 09:12:52;;;;;;;5.00;3.07;;;5.80;35.50;;;;;;10522774;28;20696;-70
2022/02/13 09:18:01;;;;;;;2.87;2.67;;;6.10;35.50;;;;;;10520619;28;20711;-71
2022/02/13 09:23:04;;;;;;;5.47;3.07;;;6.40;35.50;;;;;;10523535;28;20223;-69
2022/02/13 09:28:07;;;;;;;3.03;2.50;;;6.70;35.40;;;;;;10520361;28;20243;-70
2022/02/13 09:33:13;;;;;;;2.47;2.27;;;7.00;35.10;;;;;;10516891;28;20220;-69
2022/02/13 09:38:16;;;;;;;2.73;2.30;;;7.20;34.80;;;;;;10514615;28;20227;-69
2022/02/13 09:43:21;;;;;;;3.70;2.17;;;7.50;34.80;;;;;;10517817;28;20223;-69
2022/02/13 09:48:27;;;;;;;3.30;2.20;;;7.70;34.30;;;;;;10516998;28;20262;-69
2022/02/13 09:53:34;;;;;;;3.33;2.50;;;7.90;33.50;;;;;;10514908;28;20230;-69
2022/02/13 09:58:37;;;;;;;3.67;2.40;;;8.20;34.20;;;;;;10515043;28;20739;-69
2022/02/13 10:03:44;;;;;;;2.40;1.87;;;8.40;34.00;;;;;;10515572;28;20231;-69
2022/02/13 10:08:49;;;;;;;2.30;2.07;;;8.60;33.20;;;;;;10519965;28;20711;-69
2022/02/13 10:13:54;;;;;;;3.20;2.13;;;8.80;33.30;;;;;;10520595;28;20229;-69
2022/02/13 10:19:00;;;;;;;2.00;1.90;;;9.00;34.10;;;;;;10521666;28;20231;-70
2022/02/13 10:24:24;;;;;;;5.57;4.73;;;9.20;32.30;;;;;;10522739;28;20212;-70
2022/02/13 10:29:30;;;;;;;2.90;2.70;;;9.40;31.80;;;;;;10518113;28;20227;-71
2022/02/13 10:34:34;;;;;;;3.47;2.60;;;9.50;32.40;;;;;;10516885;28;20315;-71
2022/02/13 10:39:46;;;;;;;2.67;2.47;;;9.70;32.10;;;;;;10519483;28;20231;-73
2022/02/13 10:44:49;;;;;;;3.10;2.40;;;9.90;31.10;;;;;;10517394;28;20231;-73
2022/02/13 10:49:53;;;;;;;3.93;2.70;;;10.00;31.60;;;;;;10518297;28;20220;-72
2022/02/13 10:54:56;;;;;;;2.63;2.43;;;10.10;31.80;;;;;;10521628;28;20227;-73
2022/02/13 11:00:00;;;;;;;2.60;2.40;;;10.30;31.60;;;;;;10519462;28;20220;-73
2022/02/13 11:05:05;;;;;;;3.27;2.80;;;10.50;31.50;;;;;;10519885;28;20567;-73
2022/02/13 11:10:12;;;;;;;3.67;2.70;;;10.70;30.90;;;;;;10518622;28;20220;-73
2022/02/13 11:15:18;;;;;;;2.70;2.40;;;10.80;30.80;;;;;;10519365;28;20227;-73
2022/02/13 11:20:23;;;;;;;2.90;2.60;;;11.00;31.10;;;;;;10511823;28;20219;-73
2022/02/13 11:25:51;;;;;;;2.70;2.50;;;11.20;30.10;;;;;;10520628;28;20231;-73
2022/02/13 11:30:57;;;;;;;4.60;2.67;;;11.30;29.70;;;;;;10510496;28;20226;-74
2022/02/13 11:36:04;;;;;;;6.87;5.13;;;11.50;30.00;;;;;;10518649;28;20318;-73
2022/02/13 11:41:08;;;;;;;5.90;3.23;;;11.60;30.20;;;;;;10523318;28;20223;-73
2022/02/13 11:46:12;;;;;;;2.63;2.43;;;11.70;30.10;;;;;;10520935;28;20228;-73
2022/02/13 11:51:17;;;;;;;3.20;2.83;;;11.90;30.60;;;;;;10522980;28;20708;-72
2022/02/13 11:56:22;;;;;;;6.00;2.97;;;11.90;30.10;;;;;;10522337;28;20219;-73
2022/02/13 12:01:42;;;;;;;4.80;3.00;;;12.10;30.00;;;;;;10522515;28;20224;-73
2022/02/13 12:06:53;;;;;;;3.20;2.90;;;12.20;29.80;;;;;;10523344;28;20229;-73
2022/02/13 12:11:58;;;;;;;5.43;3.57;;;12.30;29.90;;;;;;10521494;28;20254;-73
2022/02/13 12:17:02;;;;;;;3.33;2.90;;;12.40;30.00;;;;;;10516235;28;20219;-70
2022/02/13 12:22:13;;;;;;;4.50;3.10;;;12.50;30.00;;;;;;10519486;28;20226;-69
2022/02/13 12:27:16;;;;;;;5.00;3.30;;;12.60;29.20;;;;;;10519195;28;20300;-70
2022/02/13 12:32:23;;;;;;;3.90;3.10;;;12.70;30.40;;;;;;10519960;28;20224;-73
2022/02/13 12:37:38;;;;;;;3.67;3.30;;;12.80;30.20;;;;;;10520728;28;20231;-71
2022/02/13 12:42:43;;;;;;;3.97;2.90;;;12.80;29.20;;;;;;10520278;28;20230;-73
2022/02/13 12:47:50;;;;;;;3.60;3.17;;;12.90;29.60;;;;;;10519438;28;20230;-73
2022/02/13 12:53:02;;;;;;;3.50;3.20;;;12.90;29.70;;;;;;10514751;28;20219;-69
2022/02/13 12:58:06;;;;;;;3.80;3.20;;;13.00;29.00;;;;;;10518966;28;20223;-69
2022/02/13 13:03:13;;;;;;;3.57;3.10;;;13.00;29.60;;;;;;10515812;28;21875;-69
2022/02/13 13:08:20;;;;;;;3.40;3.10;;;13.00;29.80;;;;;;10514325;28;20603;-69
2022/02/13 13:13:32;;;;;;;4.87;2.93;;;13.00;29.20;;;;;;10517586;28;20227;-69
2022/02/13 13:18:40;;;;;;;3.10;2.80;;;13.00;28.70;;;;;;10516651;28;20238;-68
2022/02/13 13:24:03;;;;;;;5.60;3.10;;;13.10;29.30;;;;;;10515766;28;20603;-69
2022/02/13 13:29:24;;;;;;;4.30;3.10;;;13.10;28.40;;;;;;10514895;28;20238;-77
2022/02/13 13:34:28;;;;;;;5.47;3.17;;;13.10;27.90;;;;;;10515304;28;20235;-70
2022/02/13 13:39:34;;;;;;;3.17;2.87;;;13.10;29.60;;;;;;10516781;28;20228;-69
2022/02/13 13:44:37;;;;;;;4.30;2.90;;;13.20;29.20;;;;;;10518134;28;20739;-69
2022/02/13 13:49:40;;;;;;;4.60;3.03;;;13.30;29.40;;;;;;10515313;28;20238;-70
2022/02/13 13:54:45;;;;;;;5.40;2.90;;;13.40;29.60;;;;;;10520351;28;20224;-71
2022/02/13 13:59:48;;;;;;;5.40;3.03;;;13.50;29.30;;;;;;10519087;28;20232;-71
2022/02/13 14:04:52;;;;;;;3.83;3.07;;;13.50;29.40;;;;;;10519502;28;20223;-71
2022/02/13 14:09:57;;;;;;;3.53;3.10;;;13.50;29.00;;;;;;10518173;28;20734;-71
2022/02/13 14:15:00;;;;;;;4.40;2.83;;;13.60;28.90;;;;;;10516120;28;20231;-71
2022/02/13 14:20:03;;;;;;;4.13;3.10;;;13.60;29.10;;;;;;10516721;28;20234;-71
2022/02/13 14:25:09;;;;;;;4.13;2.60;;;13.60;28.90;;;;;;10519030;28;20227;-70
2022/02/13 14:30:13;;;;;;;3.53;2.90;;;13.70;28.70;;;;;;10518298;28;20215;-72
2022/02/13 14:35:17;;;;;;;3.03;2.50;;;13.70;28.80;;;;;;10517356;28;20235;-72
2022/02/13 14:40:22;;;;;;;4.33;2.73;;;13.70;28.80;;;;;;10515216;28;20212;-72
2022/02/13 14:45:27;;;;;;;4.00;2.93;;;13.70;28.60;;;;;;10516431;28;20672;-72
2022/02/13 14:50:32;;;;;;;4.00;2.90;;;13.70;28.70;;;;;;10517012;28;20605;-72
2022/02/13 14:55:43;;;;;;;5.10;2.90;;;13.70;28.60;;;;;;10522132;28;20272;-72
2022/02/13 15:00:47;;;;;;;3.90;2.90;;;13.70;28.30;;;;;;10524548;28;20311;-72
2022/02/13 15:05:50;;;;;;;4.00;2.70;;;13.70;28.50;;;;;;10522385;28;20254;-72
2022/02/13 15:10:55;;;;;;;4.17;2.67;;;13.70;28.50;;;;;;10525297;28;20226;-72
2022/02/13 15:15:58;;;;;;;7.23;4.33;;;13.70;28.10;;;;;;10524153;28;20224;-72
2022/02/13 15:21:02;;;;;;;4.43;3.40;;;13.70;28.20;;;;;;10521360;28;20284;-71
2022/02/13 15:26:06;;;;;;;8.03;6.10;;;13.70;28.70;;;;;;10520263;28;20230;-73
2022/02/13 15:31:15;;;;;;;5.07;3.37;;;13.70;28.00;;;;;;10520235;28;20230;-72
2022/02/13 15:36:18;;;;;;;4.87;4.30;;;13.70;28.20;;;;;;10518565;28;20227;-72
2022/02/13 15:41:24;;;;;;;5.50;2.90;;;13.70;28.10;;;;;;10521653;28;20215;-72
2022/02/13 15:46:27;;;;;;;4.87;2.80;;;13.70;27.60;;;;;;10523179;28;20306;-73
2022/02/13 15:51:30;;;;;;;3.63;2.53;;;13.70;27.90;;;;;;10519500;28;21181;-73
2022/02/13 15:56:34;;;;;;;3.77;2.67;;;13.60;27.80;;;;;;10523760;28;20646;-72
2022/02/13 16:01:38;;;;;;;3.93;2.70;;;13.60;27.60;;;;;;10518544;28;20224;-72
2022/02/13 16:06:41;;;;;;;4.30;2.50;;;13.50;27.60;;;;;;10519260;28;20226;-74
2022/02/13 16:11:45;;;;;;;3.40;2.73;;;13.50;27.70;;;;;;10520023;28;20223;-72
2022/02/13 16:16:48;;;;;;;6.10;3.47;;;13.40;27.30;;;;;;10519345;28;20255;-74
2022/02/13 16:21:52;;;;;;;5.60;3.60;;;13.30;27.60;;;;;;10520474;28;20234;-74
2022/02/13 16:26:56;;;;;;;8.83;4.33;;;13.30;27.70;;;;;;10521479;28;20227;-73
2022/02/13 16:32:01;;;;;;;7.53;4.00;;;13.20;27.50;;;;;;10515064;28;20215;-74
2022/02/13 16:37:05;;;;;;;6.13;4.47;;;13.10;27.50;;;;;;10520096;28;20227;-73
2022/02/13 16:42:10;;;;;;;9.07;5.20;;;13.00;27.60;;;;;;10520433;28;20742;-73
2022/02/13 16:47:16;;;;;;;12.70;6.87;;;12.90;27.40;;;;;;10520618;28;20219;-73
2022/02/13 16:52:19;;;;;;;8.50;6.20;;;12.70;27.20;;;;;;10513700;28;20770;-73
2022/02/13 16:57:24;;;;;;;12.60;7.07;;;12.60;27.50;;;;;;10519884;28;20239;-73
2022/02/13 17:02:27;;;;;;;8.63;6.90;;;12.40;27.30;;;;;;10516923;28;20219;-73
2022/02/13 17:07:30;;;;;;;10.83;6.73;;;12.20;27.50;;;;;;10517976;28;20224;-73
2022/02/13 17:12:35;;;;;;;10.87;7.80;;;12.00;27.60;;;;;;10519737;28;20224;-73
2022/02/13 17:17:38;;;;;;;13.23;9.30;;;11.80;27.50;;;;;;10516805;28;20234;-73
2022/02/13 17:22:41;;;;;;;9.80;8.27;;;11.70;27.60;;;;;;10516796;28;20223;-73
2022/02/13 17:27:46;;;;;;;12.93;9.50;;;11.50;27.70;;;;;;10517443;28;20223;-73
2022/02/13 17:32:50;;;;;;;12.47;10.77;;;11.30;27.60;;;;;;10519156;28;20227;-73
2022/02/13 17:37:54;;;;;;;12.53;10.03;;;11.20;27.70;;;;;;10516799;28;20710;-73
2022/02/13 17:42:58;;;;;;;25.33;17.73;;;11.00;27.70;;;;;;10518835;28;20211;-73
2022/02/13 17:48:01;;;;;;;14.70;11.47;;;10.80;27.80;;;;;;10517102;28;20227;-73
2022/02/13 17:53:05;;;;;;;11.30;9.67;;;10.70;27.80;;;;;;10517688;28;20227;-73
2022/02/13 17:58:17;;;;;;;12.30;8.13;;;10.60;27.80;;;;;;10519606;28;20239;-73
2022/02/13 18:03:20;;;;;;;8.53;6.73;;;10.50;27.90;;;;;;10519398;28;20246;-73
2022/02/13 18:08:23;;;;;;;9.00;6.93;;;10.40;28.00;;;;;;10514056;28;20259;-73
2022/02/13 18:13:27;;;;;;;7.83;6.77;;;10.20;27.90;;;;;;10515875;28;20636;-73
2022/02/13 18:18:31;;;;;;;9.23;7.47;;;10.10;27.80;;;;;;10517171;28;20232;-74
2022/02/13 18:23:34;;;;;;;7.17;6.47;;;10.00;27.90;;;;;;10518480;28;20215;-73
2022/02/13 18:28:39;;;;;;;6.40;5.80;;;9.80;28.80;;;;;;10524088;28;20223;-73
2022/02/13 18:33:42;;;;;;;8.67;6.83;;;9.70;28.80;;;;;;10525982;28;20227;-73
2022/02/13 18:38:45;;;;;;;12.00;8.70;;;9.50;28.70;;;;;;10527680;28;20228;-73
2022/02/13 18:43:50;;;;;;;9.93;8.10;;;9.40;28.70;;;;;;10526032;28;20226;-73
2022/02/13 18:48:54;;;;;;;10.67;9.47;;;9.20;28.50;;;;;;10523029;28;20642;-73
2022/02/13 18:53:58;;;;;;;11.47;8.87;;;9.10;28.50;;;;;;10525630;28;20497;-73
2022/02/13 18:59:03;;;;;;;9.47;7.93;;;8.90;28.40;;;;;;10522475;28;20711;-73
2022/02/13 19:04:07;;;;;;;11.93;9.60;;;8.80;28.60;;;;;;10524631;28;20710;-73
2022/02/13 19:09:10;;;;;;;32.80;26.73;;;8.70;28.60;;;;;;10523821;28;20599;-73
2022/02/13 19:14:14;;;;;;;113.70;75.50;;;8.60;28.80;;;;;;10523886;28;20696;-73
2022/02/13 19:19:17;;;;;;;43.30;29.17;;;8.50;28.80;;;;;;10521704;28;20232;-73
2022/02/13 19:24:20;;;;;;;21.17;16.50;;;8.40;28.80;;;;;;10524859;28;20232;-72
2022/02/13 19:29:25;;;;;;;27.37;21.77;;;8.30;28.90;;;;;;10524437;28;20235;-72
2022/02/13 19:34:28;;;;;;;29.63;23.30;;;8.20;29.00;;;;;;10523094;28;20231;-73
2022/02/13 19:39:31;;;;;;;18.50;12.67;;;8.20;29.10;;;;;;10523144;28;20236;-73
2022/02/13 19:44:36;;;;;;;15.77;10.83;;;8.10;29.10;;;;;;10519270;28;20231;-73
2022/02/13 19:49:40;;;;;;;12.80;10.23;;;8.00;28.90;;;;;;10522458;28;20227;-73
2022/02/13 19:54:43;;;;;;;11.57;9.53;;;8.00;29.00;;;;;;10521896;28;20593;-72
2022/02/13 19:59:47;;;;;;;10.13;8.37;;;7.90;29.00;;;;;;10520417;28;20723;-73
2022/02/13 20:04:51;;;;;;;10.37;8.40;;;7.80;29.10;;;;;;10522256;28;20234;-73
2022/02/13 20:09:54;;;;;;;8.87;7.33;;;7.70;29.20;;;;;;10515727;28;20612;-73
2022/02/13 20:14:59;;;;;;;7.90;6.47;;;7.70;29.20;;;;;;10522067;28;20234;-73
2022/02/13 20:20:02;;;;;;;8.77;6.40;;;7.60;29.30;;;;;;10518869;28;20318;-72
2022/02/13 20:25:08;;;;;;;6.73;5.80;;;7.60;29.10;;;;;;10520470;28;20606;-73
2022/02/13 20:30:13;;;;;;;6.70;5.97;;;7.60;29.20;;;;;;10524549;28;20227;-72
2022/02/13 20:35:17;;;;;;;7.90;6.30;;;7.50;29.20;;;;;;10520861;28;20238;-74
2022/02/13 20:40:21;;;;;;;7.23;6.30;;;7.40;29.20;;;;;;10500562;28;20710;-74
2022/02/13 20:45:26;;;;;;;6.33;5.47;;;7.40;29.80;;;;;;10505957;28;20223;-74
2022/02/13 20:50:30;;;;;;;6.87;5.70;;;7.30;29.30;;;;;;10503814;28;20219;-74
2022/02/13 20:55:33;;;;;;;7.33;5.90;;;7.20;29.30;;;;;;10505259;28;20714;-74
2022/02/13 21:00:38;;;;;;;6.80;5.17;;;7.20;29.40;;;;;;10507406;28;20235;-73
2022/02/13 21:05:41;;;;;;;7.10;5.77;;;7.10;29.30;;;;;;10504536;28;20633;-74
2022/02/13 21:10:44;;;;;;;6.03;5.30;;;7.00;29.20;;;;;;10505235;28;20722;-74
2022/02/13 21:15:49;;;;;;;7.83;6.63;;;7.00;29.30;;;;;;10505550;28;20235;-71
2022/02/13 21:20:55;;;;;;;7.60;5.70;;;6.90;29.40;;;;;;10508172;28;20227;-72
2022/02/13 21:25:58;;;;;;;7.23;4.83;;;6.90;29.40;;;;;;10512939;28;20231;-72
2022/02/13 21:31:03;;;;;;;7.80;5.33;;;6.80;29.40;;;;;;10514904;28;20364;-72
2022/02/13 21:36:08;;;;;;;8.00;6.37;;;6.80;29.60;;;;;;10514028;28;20224;-71
2022/02/13 21:41:11;;;;;;;7.67;6.73;;;6.70;29.50;;;;;;10519401;28;20227;-71
2022/02/13 21:46:16;;;;;;;7.87;6.30;;;6.70;29.50;;;;;;10516980;28;20224;-71
2022/02/13 21:51:20;;;;;;;7.80;6.30;;;6.60;29.70;;;;;;10513992;28;20229;-72
2022/02/13 21:56:23;;;;;;;6.17;5.57;;;6.60;29.80;;;;;;10517153;28;20227;-71
2022/02/13 22:01:28;;;;;;;6.57;5.47;;;6.60;29.90;;;;;;10515629;28;20238;-72
2022/02/13 22:06:31;;;;;;;5.57;4.77;;;6.50;29.90;;;;;;10525032;28;20227;-71
2022/02/13 22:11:34;;;;;;;7.53;5.70;;;6.50;29.90;;;;;;10518919;28;20246;-71
2022/02/13 22:16:39;;;;;;;5.47;4.97;;;6.50;30.00;;;;;;10522508;28;20289;-71
2022/02/13 22:21:42;;;;;;;5.70;5.20;;;6.40;30.00;;;;;;10519981;28;20216;-71
2022/02/13 22:26:45;;;;;;;6.83;4.97;;;6.40;30.00;;;;;;10520221;28;20237;-71
2022/02/13 22:31:49;;;;;;;6.07;5.30;;;6.30;30.00;;;;;;10521542;28;20219;-71
2022/02/13 22:36:53;;;;;;;5.50;4.53;;;6.30;30.20;;;;;;10521315;28;20224;-71
2022/02/13 22:41:56;;;;;;;5.17;4.50;;;6.20;30.30;;;;;;10518207;28;20797;-71
2022/02/13 22:47:03;;;;;;;6.70;4.27;;;6.20;30.10;;;;;;10520273;28;20219;-71
2022/02/13 22:52:07;;;;;;;5.20;4.23;;;6.20;30.40;;;;;;10517556;28;20702;-71
2022/02/13 22:57:10;;;;;;;4.67;4.23;;;6.20;30.40;;;;;;10519530;28;20231;-71
2022/02/13 23:02:14;;;;;;;5.50;4.40;;;6.10;30.30;;;;;;10520468;28;20260;-71
2022/02/13 23:12:39;;;;;;;4.87;4.13;;;6.10;30.40;;;;;;10518962;28;20846;-71
2022/02/13 23:17:43;;;;;;;5.10;3.30;;;6.00;30.40;;;;;;10518432;28;20715;-69
2022/02/13 23:22:46;;;;;;;3.90;3.53;;;6.00;30.40;;;;;;10517074;28;20232;-70
2022/02/13 23:27:50;;;;;;;4.63;3.93;;;6.00;30.20;;;;;;10519566;28;20310;-70
2022/02/13 23:32:54;;;;;;;4.50;3.77;;;6.10;30.40;;;;;;10525296;28;20595;-69
2022/02/13 23:37:58;;;;;;;5.50;4.20;;;6.00;30.40;;;;;;10525896;28;20230;-70
2022/02/13 23:43:01;;;;;;;3.97;3.57;;;6.00;30.30;;;;;;10525363;28;20228;-70
2022/02/13 23:48:06;;;;;;;4.47;4.03;;;6.00;30.30;;;;;;10523046;28;20219;-70
2022/02/13 23:53:10;;;;;;;4.57;4.07;;;5.90;30.40;;;;;;10523952;28;20792;-70
2022/02/13 23:58:13;;;;;;;4.30;3.80;;;5.90;30.30;;;;;;10525472;28;20223;-70
